sensor_id;sensor_type;location;lat;lon;timestamp;P1;durP1;ratioP1;P2;durP2;ratioP2
51266;SDS011;37338;47.426;19.204;2023-07-13T00:01:30;11.10;;;3.83;;
51266;SDS011;37338;47.426;19.204;2023-07-13T00:03:56;10.52;;;4.40;;
51266;SDS011;37338;47.426;19.204;2023-07-13T00:06:22;8.05;;;3.05;;
51266;SDS011;37338;47.426;19.204;2023-07-13T00:08:47;15.70;;;3.42;;
51266;SDS011;37338;47.426;19.204;2023-07-13T00:11:14;8.38;;;3.60;;
51266;SDS011;37338;47.426;19.204;2023-07-13T00:13:40;11.02;;;2.33;;
51266;SDS011;37338;47.426;19.204;2023-07-13T00:16:06;14.95;;;2.50;;
51266;SDS011;37338;47.426;19.204;2023-07-13T00:18:32;10.10;;;3.22;;
51266;SDS011;37338;47.426;19.204;2023-07-13T00:20:58;12.05;;;2.40;;
51266;SDS011;37338;47.426;19.204;2023-07-13T00:23:34;5.95;;;2.42;;
51266;SDS011;37338;47.426;19.204;2023-07-13T00:26:01;4.88;;;1.90;;
51266;SDS011;37338;47.426;19.204;2023-07-13T00:28:27;7.55;;;1.92;;
51266;SDS011;37338;47.426;19.204;2023-07-13T00:30:52;8.32;;;1.80;;
51266;SDS011;37338;47.426;19.204;2023-07-13T00:33:19;6.93;;;3.10;;
51266;SDS011;37338;47.426;19.204;2023-07-13T00:35:44;6.32;;;1.63;;
51266;SDS011;37338;47.426;19.204;2023-07-13T00:38:10;6.68;;;1.80;;
51266;SDS011;37338;47.426;19.204;2023-07-13T00:40:35;7.05;;;2.22;;
51266;SDS011;37338;47.426;19.204;2023-07-13T00:43:00;4.68;;;2.40;;
51266;SDS011;37338;47.426;19.204;2023-07-13T00:47:51;2.63;;;1.80;;
51266;SDS011;37338;47.426;19.204;2023-07-13T00:50:17;5.10;;;1.85;;
51266;SDS011;37338;47.426;19.204;2023-07-13T00:52:44;5.82;;;1.88;;
51266;SDS011;37338;47.426;19.204;2023-07-13T00:55:11;6.38;;;2.55;;
51266;SDS011;37338;47.426;19.204;2023-07-13T00:57:38;5.65;;;3.00;;
51266;SDS011;37338;47.426;19.204;2023-07-13T01:00:04;7.05;;;2.30;;
51266;SDS011;37338;47.426;19.204;2023-07-13T01:02:31;5.68;;;2.88;;
51266;SDS011;37338;47.426;19.204;2023-07-13T01:04:57;4.68;;;2.20;;
51266;SDS011;37338;47.426;19.204;2023-07-13T01:07:22;6.63;;;1.98;;
51266;SDS011;37338;47.426;19.204;2023-07-13T01:09:48;3.25;;;2.35;;
51266;SDS011;37338;47.426;19.204;2023-07-13T01:12:13;4.93;;;2.25;;
51266;SDS011;37338;47.426;19.204;2023-07-13T01:14:39;6.63;;;2.40;;
51266;SDS011;37338;47.426;19.204;2023-07-13T01:17:05;2.97;;;2.03;;
51266;SDS011;37338;47.426;19.204;2023-07-13T01:19:39;11.43;;;3.20;;
51266;SDS011;37338;47.426;19.204;2023-07-13T01:24:43;3.55;;;1.80;;
51266;SDS011;37338;47.426;19.204;2023-07-13T01:27:11;7.97;;;2.33;;
51266;SDS011;37338;47.426;19.204;2023-07-13T01:29:39;6.60;;;2.30;;
51266;SDS011;37338;47.426;19.204;2023-07-13T01:32:08;5.10;;;1.92;;
51266;SDS011;37338;47.426;19.204;2023-07-13T01:34:38;4.00;;;1.55;;
51266;SDS011;37338;47.426;19.204;2023-07-13T01:37:07;4.53;;;1.90;;
51266;SDS011;37338;47.426;19.204;2023-07-13T01:39:34;8.38;;;1.90;;
51266;SDS011;37338;47.426;19.204;2023-07-13T01:41:59;4.68;;;2.17;;
51266;SDS011;37338;47.426;19.204;2023-07-13T01:44:25;8.85;;;2.05;;
51266;SDS011;37338;47.426;19.204;2023-07-13T01:46:51;5.68;;;2.78;;
51266;SDS011;37338;47.426;19.204;2023-07-13T01:49:16;4.13;;;2.22;;
51266;SDS011;37338;47.426;19.204;2023-07-13T01:51:42;7.20;;;2.10;;
51266;SDS011;37338;47.426;19.204;2023-07-13T01:54:07;5.97;;;2.17;;
51266;SDS011;37338;47.426;19.204;2023-07-13T01:56:32;9.45;;;2.22;;
51266;SDS011;37338;47.426;19.204;2023-07-13T01:58:58;4.18;;;2.10;;
51266;SDS011;37338;47.426;19.204;2023-07-13T02:01:23;5.45;;;1.70;;
51266;SDS011;37338;47.426;19.204;2023-07-13T02:03:48;5.22;;;2.20;;
51266;SDS011;37338;47.426;19.204;2023-07-13T02:06:14;4.30;;;1.42;;
51266;SDS011;37338;47.426;19.204;2023-07-13T02:08:40;2.83;;;1.80;;
51266;SDS011;37338;47.426;19.204;2023-07-13T02:11:06;3.08;;;1.90;;
51266;SDS011;37338;47.426;19.204;2023-07-13T02:13:31;10.32;;;2.80;;
51266;SDS011;37338;47.426;19.204;2023-07-13T02:15:57;7.43;;;2.38;;
51266;SDS011;37338;47.426;19.204;2023-07-13T02:18:22;3.90;;;1.75;;
51266;SDS011;37338;47.426;19.204;2023-07-13T02:20:47;3.80;;;1.50;;
51266;SDS011;37338;47.426;19.204;2023-07-13T02:23:13;6.70;;;1.85;;
51266;SDS011;37338;47.426;19.204;2023-07-13T02:25:39;5.85;;;1.95;;
51266;SDS011;37338;47.426;19.204;2023-07-13T02:28:04;7.80;;;2.03;;
51266;SDS011;37338;47.426;19.204;2023-07-13T02:30:30;4.47;;;2.92;;
51266;SDS011;37338;47.426;19.204;2023-07-13T02:32:56;6.88;;;2.05;;
51266;SDS011;37338;47.426;19.204;2023-07-13T02:35:21;4.05;;;2.33;;
51266;SDS011;37338;47.426;19.204;2023-07-13T02:37:47;5.90;;;2.47;;
51266;SDS011;37338;47.426;19.204;2023-07-13T02:40:12;7.30;;;2.28;;
51266;SDS011;37338;47.426;19.204;2023-07-13T02:42:38;5.40;;;2.42;;
51266;SDS011;37338;47.426;19.204;2023-07-13T02:45:03;5.03;;;1.85;;
51266;SDS011;37338;47.426;19.204;2023-07-13T02:47:31;6.00;;;2.00;;
51266;SDS011;37338;47.426;19.204;2023-07-13T02:49:57;5.75;;;2.05;;
51266;SDS011;37338;47.426;19.204;2023-07-13T02:52:22;5.03;;;2.17;;
51266;SDS011;37338;47.426;19.204;2023-07-13T02:54:47;5.03;;;2.25;;
51266;SDS011;37338;47.426;19.204;2023-07-13T02:57:13;3.10;;;1.73;;
51266;SDS011;37338;47.426;19.204;2023-07-13T02:59:38;3.80;;;2.63;;
51266;SDS011;37338;47.426;19.204;2023-07-13T03:02:04;8.02;;;2.40;;
51266;SDS011;37338;47.426;19.204;2023-07-13T03:04:29;5.20;;;2.13;;
51266;SDS011;37338;47.426;19.204;2023-07-13T03:06:55;3.25;;;2.00;;
51266;SDS011;37338;47.426;19.204;2023-07-13T03:09:23;4.90;;;2.42;;
51266;SDS011;37338;47.426;19.204;2023-07-13T03:11:49;3.13;;;2.20;;
51266;SDS011;37338;47.426;19.204;2023-07-13T03:14:14;5.30;;;2.67;;
51266;SDS011;37338;47.426;19.204;2023-07-13T03:16:39;5.55;;;2.13;;
51266;SDS011;37338;47.426;19.204;2023-07-13T03:19:05;4.53;;;2.00;;
51266;SDS011;37338;47.426;19.204;2023-07-13T03:21:30;3.95;;;1.60;;
51266;SDS011;37338;47.426;19.204;2023-07-13T03:23:56;5.60;;;2.30;;
51266;SDS011;37338;47.426;19.204;2023-07-13T03:26:21;5.50;;;2.25;;
51266;SDS011;37338;47.426;19.204;2023-07-13T03:28:47;5.38;;;2.30;;
51266;SDS011;37338;47.426;19.204;2023-07-13T03:31:14;4.78;;;2.20;;
51266;SDS011;37338;47.426;19.204;2023-07-13T03:33:41;6.40;;;2.00;;
51266;SDS011;37338;47.426;19.204;2023-07-13T03:36:07;5.75;;;2.25;;
51266;SDS011;37338;47.426;19.204;2023-07-13T03:38:34;5.38;;;2.20;;
51266;SDS011;37338;47.426;19.204;2023-07-13T03:41:00;5.75;;;1.98;;
51266;SDS011;37338;47.426;19.204;2023-07-13T03:43:25;6.07;;;2.50;;
51266;SDS011;37338;47.426;19.204;2023-07-13T03:45:51;4.22;;;2.30;;
51266;SDS011;37338;47.426;19.204;2023-07-13T03:48:16;7.75;;;1.98;;
51266;SDS011;37338;47.426;19.204;2023-07-13T03:50:42;5.22;;;2.38;;
51266;SDS011;37338;47.426;19.204;2023-07-13T03:53:07;8.70;;;2.40;;
51266;SDS011;37338;47.426;19.204;2023-07-13T03:55:33;8.55;;;2.60;;
51266;SDS011;37338;47.426;19.204;2023-07-13T03:57:59;4.10;;;2.35;;
51266;SDS011;37338;47.426;19.204;2023-07-13T04:00:25;7.72;;;2.35;;
51266;SDS011;37338;47.426;19.204;2023-07-13T04:02:51;9.65;;;2.58;;
51266;SDS011;37338;47.426;19.204;2023-07-13T04:05:16;6.13;;;2.42;;
51266;SDS011;37338;47.426;19.204;2023-07-13T04:07:42;8.73;;;2.78;;
51266;SDS011;37338;47.426;19.204;2023-07-13T04:10:08;9.48;;;2.67;;
51266;SDS011;37338;47.426;19.204;2023-07-13T04:12:33;7.43;;;2.78;;
51266;SDS011;37338;47.426;19.204;2023-07-13T04:14:59;5.88;;;2.38;;
51266;SDS011;37338;47.426;19.204;2023-07-13T04:17:24;5.47;;;2.40;;
51266;SDS011;37338;47.426;19.204;2023-07-13T04:19:50;3.88;;;2.22;;
51266;SDS011;37338;47.426;19.204;2023-07-13T04:22:15;4.63;;;2.70;;
51266;SDS011;37338;47.426;19.204;2023-07-13T04:24:40;5.15;;;2.38;;
51266;SDS011;37338;47.426;19.204;2023-07-13T04:27:06;6.28;;;2.00;;
51266;SDS011;37338;47.426;19.204;2023-07-13T04:29:31;5.15;;;2.00;;
51266;SDS011;37338;47.426;19.204;2023-07-13T04:31:57;5.07;;;1.75;;
51266;SDS011;37338;47.426;19.204;2023-07-13T04:34:22;2.55;;;1.65;;
51266;SDS011;37338;47.426;19.204;2023-07-13T04:36:49;5.78;;;2.42;;
51266;SDS011;37338;47.426;19.204;2023-07-13T04:39:14;7.22;;;2.00;;
51266;SDS011;37338;47.426;19.204;2023-07-13T04:41:40;4.55;;;1.98;;
51266;SDS011;37338;47.426;19.204;2023-07-13T04:44:05;7.65;;;2.33;;
51266;SDS011;37338;47.426;19.204;2023-07-13T04:46:31;8.10;;;3.10;;
51266;SDS011;37338;47.426;19.204;2023-07-13T04:48:56;7.15;;;3.83;;
51266;SDS011;37338;47.426;19.204;2023-07-13T04:51:22;19.10;;;2.97;;
51266;SDS011;37338;47.426;19.204;2023-07-13T04:53:48;5.30;;;2.88;;
51266;SDS011;37338;47.426;19.204;2023-07-13T04:56:13;16.42;;;4.15;;
51266;SDS011;37338;47.426;19.204;2023-07-13T04:58:39;10.82;;;3.67;;
51266;SDS011;37338;47.426;19.204;2023-07-13T05:01:05;13.27;;;3.50;;
51266;SDS011;37338;47.426;19.204;2023-07-13T05:03:31;10.73;;;3.60;;
51266;SDS011;37338;47.426;19.204;2023-07-13T05:06:00;15.55;;;3.15;;
51266;SDS011;37338;47.426;19.204;2023-07-13T05:08:27;7.95;;;3.33;;
51266;SDS011;37338;47.426;19.204;2023-07-13T05:10:53;13.40;;;3.75;;
51266;SDS011;37338;47.426;19.204;2023-07-13T05:13:18;12.10;;;3.65;;
51266;SDS011;37338;47.426;19.204;2023-07-13T05:15:44;16.02;;;3.50;;
51266;SDS011;37338;47.426;19.204;2023-07-13T05:18:10;14.00;;;3.92;;
51266;SDS011;37338;47.426;19.204;2023-07-13T05:20:35;7.88;;;3.20;;
51266;SDS011;37338;47.426;19.204;2023-07-13T05:23:01;8.40;;;2.72;;
51266;SDS011;37338;47.426;19.204;2023-07-13T05:25:26;7.97;;;2.38;;
51266;SDS011;37338;47.426;19.204;2023-07-13T05:27:52;3.97;;;2.22;;
51266;SDS011;37338;47.426;19.204;2023-07-13T05:30:17;6.97;;;1.85;;
51266;SDS011;37338;47.426;19.204;2023-07-13T05:32:42;4.22;;;2.05;;
51266;SDS011;37338;47.426;19.204;2023-07-13T05:35:08;6.55;;;2.83;;
51266;SDS011;37338;47.426;19.204;2023-07-13T05:37:33;6.28;;;1.85;;
51266;SDS011;37338;47.426;19.204;2023-07-13T05:39:59;6.03;;;1.38;;
51266;SDS011;37338;47.426;19.204;2023-07-13T05:42:24;3.47;;;1.33;;
51266;SDS011;37338;47.426;19.204;2023-07-13T05:44:49;4.30;;;2.13;;
51266;SDS011;37338;47.426;19.204;2023-07-13T05:47:15;3.75;;;1.52;;
51266;SDS011;37338;47.426;19.204;2023-07-13T05:49:41;4.30;;;1.52;;
51266;SDS011;37338;47.426;19.204;2023-07-13T05:52:06;3.72;;;1.58;;
51266;SDS011;37338;47.426;19.204;2023-07-13T05:54:32;6.00;;;2.00;;
51266;SDS011;37338;47.426;19.204;2023-07-13T05:56:57;8.25;;;1.23;;
51266;SDS011;37338;47.426;19.204;2023-07-13T05:59:22;3.10;;;1.95;;
51266;SDS011;37338;47.426;19.204;2023-07-13T06:01:48;5.50;;;1.95;;
51266;SDS011;37338;47.426;19.204;2023-07-13T06:04:15;4.45;;;1.45;;
51266;SDS011;37338;47.426;19.204;2023-07-13T06:06:40;5.82;;;1.45;;
51266;SDS011;37338;47.426;19.204;2023-07-13T06:09:05;4.03;;;1.25;;
51266;SDS011;37338;47.426;19.204;2023-07-13T06:11:31;5.45;;;0.90;;
51266;SDS011;37338;47.426;19.204;2023-07-13T06:13:56;2.92;;;0.90;;
51266;SDS011;37338;47.426;19.204;2023-07-13T06:16:21;1.73;;;0.80;;
51266;SDS011;37338;47.426;19.204;2023-07-13T06:18:47;7.32;;;1.60;;
51266;SDS011;37338;47.426;19.204;2023-07-13T06:21:18;2.03;;;0.82;;
51266;SDS011;37338;47.426;19.204;2023-07-13T06:23:45;2.13;;;0.70;;
51266;SDS011;37338;47.426;19.204;2023-07-13T06:26:12;2.20;;;0.90;;
51266;SDS011;37338;47.426;19.204;2023-07-13T06:28:38;2.10;;;0.90;;
51266;SDS011;37338;47.426;19.204;2023-07-13T06:31:05;1.52;;;0.75;;
51266;SDS011;37338;47.426;19.204;2023-07-13T06:33:32;1.83;;;0.73;;
51266;SDS011;37338;47.426;19.204;2023-07-13T06:35:58;1.23;;;0.73;;
51266;SDS011;37338;47.426;19.204;2023-07-13T06:38:23;1.77;;;0.85;;
51266;SDS011;37338;47.426;19.204;2023-07-13T06:40:49;2.30;;;0.80;;
51266;SDS011;37338;47.426;19.204;2023-07-13T06:43:14;1.73;;;0.90;;
51266;SDS011;37338;47.426;19.204;2023-07-13T06:45:40;1.17;;;0.68;;
51266;SDS011;37338;47.426;19.204;2023-07-13T06:48:10;1.77;;;0.60;;
51266;SDS011;37338;47.426;19.204;2023-07-13T06:50:36;1.70;;;0.60;;
51266;SDS011;37338;47.426;19.204;2023-07-13T06:53:02;1.75;;;0.73;;
51266;SDS011;37338;47.426;19.204;2023-07-13T06:55:27;3.22;;;0.63;;
51266;SDS011;37338;47.426;19.204;2023-07-13T06:57:52;1.70;;;0.90;;
51266;SDS011;37338;47.426;19.204;2023-07-13T07:00:18;3.03;;;0.75;;
51266;SDS011;37338;47.426;19.204;2023-07-13T07:02:43;2.30;;;0.82;;
51266;SDS011;37338;47.426;19.204;2023-07-13T07:05:09;1.90;;;0.70;;
51266;SDS011;37338;47.426;19.204;2023-07-13T07:07:34;2.08;;;0.70;;
51266;SDS011;37338;47.426;19.204;2023-07-13T07:10:00;2.63;;;0.65;;
51266;SDS011;37338;47.426;19.204;2023-07-13T07:12:25;2.70;;;1.25;;
51266;SDS011;37338;47.426;19.204;2023-07-13T07:14:51;3.28;;;0.68;;
51266;SDS011;37338;47.426;19.204;2023-07-13T07:17:16;1.77;;;0.70;;
51266;SDS011;37338;47.426;19.204;2023-07-13T07:19:41;2.38;;;0.90;;
51266;SDS011;37338;47.426;19.204;2023-07-13T07:22:07;1.27;;;0.70;;
51266;SDS011;37338;47.426;19.204;2023-07-13T07:24:32;3.42;;;0.60;;
51266;SDS011;37338;47.426;19.204;2023-07-13T07:26:57;2.58;;;0.60;;
51266;SDS011;37338;47.426;19.204;2023-07-13T07:29:23;2.03;;;0.82;;
51266;SDS011;37338;47.426;19.204;2023-07-13T07:31:51;2.70;;;0.80;;
51266;SDS011;37338;47.426;19.204;2023-07-13T07:34:17;5.07;;;1.02;;
51266;SDS011;37338;47.426;19.204;2023-07-13T07:36:42;3.45;;;1.15;;
51266;SDS011;37338;47.426;19.204;2023-07-13T07:39:07;1.17;;;0.80;;
51266;SDS011;37338;47.426;19.204;2023-07-13T07:41:33;4.30;;;1.33;;
51266;SDS011;37338;47.426;19.204;2023-07-13T07:43:58;3.50;;;1.00;;
51266;SDS011;37338;47.426;19.204;2023-07-13T07:46:23;4.00;;;0.90;;
51266;SDS011;37338;47.426;19.204;2023-07-13T07:48:49;2.60;;;1.02;;
51266;SDS011;37338;47.426;19.204;2023-07-13T07:51:14;2.72;;;1.10;;
51266;SDS011;37338;47.426;19.204;2023-07-13T07:53:39;4.88;;;1.10;;
51266;SDS011;37338;47.426;19.204;2023-07-13T07:56:05;2.85;;;0.93;;
51266;SDS011;37338;47.426;19.204;2023-07-13T07:58:30;3.05;;;1.77;;
51266;SDS011;37338;47.426;19.204;2023-07-13T08:01:05;2.75;;;1.40;;
51266;SDS011;37338;47.426;19.204;2023-07-13T08:03:31;3.92;;;1.90;;
51266;SDS011;37338;47.426;19.204;2023-07-13T08:05:57;2.33;;;1.20;;
51266;SDS011;37338;47.426;19.204;2023-07-13T08:08:22;2.35;;;0.93;;
51266;SDS011;37338;47.426;19.204;2023-07-13T08:10:47;3.72;;;0.90;;
51266;SDS011;37338;47.426;19.204;2023-07-13T08:13:13;2.80;;;0.88;;
51266;SDS011;37338;47.426;19.204;2023-07-13T08:15:38;1.63;;;1.08;;
51266;SDS011;37338;47.426;19.204;2023-07-13T08:18:04;1.35;;;0.60;;
51266;SDS011;37338;47.426;19.204;2023-07-13T08:20:29;2.25;;;0.80;;
51266;SDS011;37338;47.426;19.204;2023-07-13T08:22:54;2.00;;;1.17;;
51266;SDS011;37338;47.426;19.204;2023-07-13T08:25:20;1.92;;;1.00;;
51266;SDS011;37338;47.426;19.204;2023-07-13T08:27:46;1.40;;;1.00;;
51266;SDS011;37338;47.426;19.204;2023-07-13T08:30:12;4.72;;;1.23;;
51266;SDS011;37338;47.426;19.204;2023-07-13T08:32:37;2.03;;;1.25;;
51266;SDS011;37338;47.426;19.204;2023-07-13T08:35:03;2.05;;;1.08;;
51266;SDS011;37338;47.426;19.204;2023-07-13T08:37:30;3.45;;;0.80;;
51266;SDS011;37338;47.426;19.204;2023-07-13T08:39:55;3.25;;;1.23;;
51266;SDS011;37338;47.426;19.204;2023-07-13T08:42:32;1.67;;;0.88;;
51266;SDS011;37338;47.426;19.204;2023-07-13T08:45:13;1.55;;;1.20;;
51266;SDS011;37338;47.426;19.204;2023-07-13T08:47:40;2.80;;;1.02;;
51266;SDS011;37338;47.426;19.204;2023-07-13T08:50:12;4.22;;;1.63;;
51266;SDS011;37338;47.426;19.204;2023-07-13T08:52:40;6.70;;;2.47;;
51266;SDS011;37338;47.426;19.204;2023-07-13T08:55:26;3.75;;;1.00;;
51266;SDS011;37338;47.426;19.204;2023-07-13T08:57:56;2.88;;;1.20;;
51266;SDS011;37338;47.426;19.204;2023-07-13T09:00:28;1.90;;;1.13;;
51266;SDS011;37338;47.426;19.204;2023-07-13T09:03:04;3.55;;;1.33;;
51266;SDS011;37338;47.426;19.204;2023-07-13T09:05:31;3.97;;;1.17;;
51266;SDS011;37338;47.426;19.204;2023-07-13T09:10:52;2.20;;;1.13;;
51266;SDS011;37338;47.426;19.204;2023-07-13T09:13:35;3.40;;;1.30;;
51266;SDS011;37338;47.426;19.204;2023-07-13T09:16:05;4.97;;;1.90;;
51266;SDS011;37338;47.426;19.204;2023-07-13T09:18:35;1.20;;;0.98;;
51266;SDS011;37338;47.426;19.204;2023-07-13T09:21:12;2.37;;;1.10;;
51266;SDS011;37338;47.426;19.204;2023-07-13T09:23:40;3.90;;;1.20;;
51266;SDS011;37338;47.426;19.204;2023-07-13T09:28:38;2.47;;;1.00;;
51266;SDS011;37338;47.426;19.204;2023-07-13T09:33:49;5.15;;;1.98;;
51266;SDS011;37338;47.426;19.204;2023-07-13T09:38:41;1.40;;;1.25;;
51266;SDS011;37338;47.426;19.204;2023-07-13T09:41:19;1.17;;;0.82;;
51266;SDS011;37338;47.426;19.204;2023-07-13T09:47:01;3.13;;;1.77;;
51266;SDS011;37338;47.426;19.204;2023-07-13T09:49:27;1.92;;;1.40;;
51266;SDS011;37338;47.426;19.204;2023-07-13T09:52:04;2.20;;;1.10;;
51266;SDS011;37338;47.426;19.204;2023-07-13T09:54:35;2.05;;;1.00;;
51266;SDS011;37338;47.426;19.204;2023-07-13T09:57:01;5.13;;;1.45;;
51266;SDS011;37338;47.426;19.204;2023-07-13T09:59:32;3.08;;;1.70;;
51266;SDS011;37338;47.426;19.204;2023-07-13T10:01:58;3.88;;;1.52;;
51266;SDS011;37338;47.426;19.204;2023-07-13T10:04:42;2.25;;;1.17;;
51266;SDS011;37338;47.426;19.204;2023-07-13T10:07:11;3.50;;;1.05;;
51266;SDS011;37338;47.426;19.204;2023-07-13T10:09:38;4.78;;;1.33;;
51266;SDS011;37338;47.426;19.204;2023-07-13T10:12:04;1.67;;;1.23;;
51266;SDS011;37338;47.426;19.204;2023-07-13T10:14:37;3.88;;;1.23;;
51266;SDS011;37338;47.426;19.204;2023-07-13T10:17:04;2.50;;;1.50;;
51266;SDS011;37338;47.426;19.204;2023-07-13T10:19:34;6.25;;;1.08;;
51266;SDS011;37338;47.426;19.204;2023-07-13T10:22:01;3.08;;;1.10;;
51266;SDS011;37338;47.426;19.204;2023-07-13T10:24:30;1.70;;;1.52;;
51266;SDS011;37338;47.426;19.204;2023-07-13T10:29:48;2.83;;;1.40;;
51266;SDS011;37338;47.426;19.204;2023-07-13T10:32:18;2.35;;;1.38;;
51266;SDS011;37338;47.426;19.204;2023-07-13T10:34:45;3.15;;;1.60;;
51266;SDS011;37338;47.426;19.204;2023-07-13T10:37:17;3.35;;;1.13;;
51266;SDS011;37338;47.426;19.204;2023-07-13T10:39:45;5.55;;;1.50;;
51266;SDS011;37338;47.426;19.204;2023-07-13T10:42:11;3.83;;;1.65;;
51266;SDS011;37338;47.426;19.204;2023-07-13T10:44:51;2.00;;;1.30;;
51266;SDS011;37338;47.426;19.204;2023-07-13T10:47:17;3.20;;;1.13;;
51266;SDS011;37338;47.426;19.204;2023-07-13T10:49:43;4.50;;;1.05;;
51266;SDS011;37338;47.426;19.204;2023-07-13T11:03:38;2.60;;;1.33;;
51266;SDS011;37338;47.426;19.204;2023-07-13T11:09:30;6.05;;;2.03;;
51266;SDS011;37338;47.426;19.204;2023-07-13T11:12:02;1.58;;;0.90;;
51266;SDS011;37338;47.426;19.204;2023-07-13T11:14:43;1.47;;;1.37;;
51266;SDS011;37338;47.426;19.204;2023-07-13T11:20:21;1.02;;;0.90;;
51266;SDS011;37338;47.426;19.204;2023-07-13T11:25:37;1.25;;;1.10;;
51266;SDS011;37338;47.426;19.204;2023-07-13T11:33:45;2.28;;;0.90;;
51266;SDS011;37338;47.426;19.204;2023-07-13T11:38:42;4.53;;;0.80;;
51266;SDS011;37338;47.426;19.204;2023-07-13T11:41:16;1.48;;;0.60;;
51266;SDS011;37338;47.426;19.204;2023-07-13T11:43:50;1.80;;;0.80;;
51266;SDS011;37338;47.426;19.204;2023-07-13T11:46:23;2.10;;;0.90;;
51266;SDS011;37338;47.426;19.204;2023-07-13T11:48:50;3.20;;;0.90;;
51266;SDS011;37338;47.426;19.204;2023-07-13T11:51:23;2.42;;;0.90;;
51266;SDS011;37338;47.426;19.204;2023-07-13T11:53:54;2.10;;;0.88;;
51266;SDS011;37338;47.426;19.204;2023-07-13T11:56:20;1.25;;;0.57;;
51266;SDS011;37338;47.426;19.204;2023-07-13T11:58:50;2.25;;;0.90;;
51266;SDS011;37338;47.426;19.204;2023-07-13T12:01:18;2.42;;;0.68;;
51266;SDS011;37338;47.426;19.204;2023-07-13T12:03:45;1.52;;;1.17;;
51266;SDS011;37338;47.426;19.204;2023-07-13T12:06:26;1.23;;;0.57;;
51266;SDS011;37338;47.426;19.204;2023-07-13T12:08:55;2.10;;;0.80;;
51266;SDS011;37338;47.426;19.204;2023-07-13T12:11:23;1.23;;;0.52;;
51266;SDS011;37338;47.426;19.204;2023-07-13T12:13:48;0.95;;;0.70;;
51266;SDS011;37338;47.426;19.204;2023-07-13T12:16:16;1.52;;;0.60;;
51266;SDS011;37338;47.426;19.204;2023-07-13T12:18:46;1.70;;;0.60;;
51266;SDS011;37338;47.426;19.204;2023-07-13T12:21:12;0.77;;;0.68;;
51266;SDS011;37338;47.426;19.204;2023-07-13T12:23:39;1.33;;;0.70;;
51266;SDS011;37338;47.426;19.204;2023-07-13T12:26:06;1.13;;;0.95;;
51266;SDS011;37338;47.426;19.204;2023-07-13T12:28:35;2.42;;;0.70;;
51266;SDS011;37338;47.426;19.204;2023-07-13T12:31:06;1.45;;;0.60;;
51266;SDS011;37338;47.426;19.204;2023-07-13T12:33:33;1.42;;;0.68;;
51266;SDS011;37338;47.426;19.204;2023-07-13T12:36:03;2.53;;;0.80;;
51266;SDS011;37338;47.426;19.204;2023-07-13T12:38:30;1.98;;;0.70;;
51266;SDS011;37338;47.426;19.204;2023-07-13T12:40:56;0.57;;;0.55;;
51266;SDS011;37338;47.426;19.204;2023-07-13T12:43:22;1.58;;;0.47;;
51266;SDS011;37338;47.426;19.204;2023-07-13T12:48:20;2.53;;;0.40;;
51266;SDS011;37338;47.426;19.204;2023-07-13T12:50:47;1.25;;;0.73;;
51266;SDS011;37338;47.426;19.204;2023-07-13T12:53:15;4.00;;;0.90;;
51266;SDS011;37338;47.426;19.204;2023-07-13T12:55:52;1.33;;;0.55;;
51266;SDS011;37338;47.426;19.204;2023-07-13T12:58:26;0.98;;;0.70;;
51266;SDS011;37338;47.426;19.204;2023-07-13T13:00:55;1.35;;;0.60;;
51266;SDS011;37338;47.426;19.204;2023-07-13T13:05:58;1.80;;;0.85;;
51266;SDS011;37338;47.426;19.204;2023-07-13T13:08:25;1.10;;;0.60;;
51266;SDS011;37338;47.426;19.204;2023-07-13T13:10:50;2.70;;;0.70;;
51266;SDS011;37338;47.426;19.204;2023-07-13T13:13:16;1.20;;;0.70;;
51266;SDS011;37338;47.426;19.204;2023-07-13T13:15:41;1.95;;;0.80;;
51266;SDS011;37338;47.426;19.204;2023-07-13T13:18:14;1.63;;;0.82;;
51266;SDS011;37338;47.426;19.204;2023-07-13T13:20:43;4.80;;;0.90;;
51266;SDS011;37338;47.426;19.204;2023-07-13T13:23:11;1.48;;;0.90;;
51266;SDS011;37338;47.426;19.204;2023-07-13T13:25:39;1.45;;;0.85;;
51266;SDS011;37338;47.426;19.204;2023-07-13T13:28:04;1.60;;;1.13;;
51266;SDS011;37338;47.426;19.204;2023-07-13T13:30:30;1.60;;;0.82;;
51266;SDS011;37338;47.426;19.204;2023-07-13T13:32:56;1.35;;;1.17;;
51266;SDS011;37338;47.426;19.204;2023-07-13T13:35:21;2.33;;;1.00;;
51266;SDS011;37338;47.426;19.204;2023-07-13T13:37:47;3.10;;;1.48;;
51266;SDS011;37338;47.426;19.204;2023-07-13T13:40:15;4.47;;;1.20;;
51266;SDS011;37338;47.426;19.204;2023-07-13T13:42:42;5.20;;;1.17;;
51266;SDS011;37338;47.426;19.204;2023-07-13T13:45:11;1.73;;;0.98;;
51266;SDS011;37338;47.426;19.204;2023-07-13T13:47:42;2.55;;;1.10;;
51266;SDS011;37338;47.426;19.204;2023-07-13T13:50:12;1.33;;;0.85;;
51266;SDS011;37338;47.426;19.204;2023-07-13T13:52:39;2.40;;;0.95;;
51266;SDS011;37338;47.426;19.204;2023-07-13T13:55:15;1.75;;;0.75;;
51266;SDS011;37338;47.426;19.204;2023-07-13T13:57:43;2.67;;;1.00;;
51266;SDS011;37338;47.426;19.204;2023-07-13T14:00:10;1.15;;;0.90;;
51266;SDS011;37338;47.426;19.204;2023-07-13T14:02:39;5.82;;;1.23;;
51266;SDS011;37338;47.426;19.204;2023-07-13T14:05:06;2.60;;;1.30;;
51266;SDS011;37338;47.426;19.204;2023-07-13T14:07:33;2.30;;;1.00;;
51266;SDS011;37338;47.426;19.204;2023-07-13T14:09:58;3.03;;;0.88;;
51266;SDS011;37338;47.426;19.204;2023-07-13T14:12:25;4.05;;;1.30;;
51266;SDS011;37338;47.426;19.204;2023-07-13T14:14:53;1.17;;;1.08;;
51266;SDS011;37338;47.426;19.204;2023-07-13T14:17:20;2.65;;;1.20;;
51266;SDS011;37338;47.426;19.204;2023-07-13T14:19:49;2.42;;;0.73;;
51266;SDS011;37338;47.426;19.204;2023-07-13T14:22:16;2.83;;;1.02;;
51266;SDS011;37338;47.426;19.204;2023-07-13T14:24:43;1.38;;;0.90;;
51266;SDS011;37338;47.426;19.204;2023-07-13T14:27:09;1.38;;;0.90;;
51266;SDS011;37338;47.426;19.204;2023-07-13T14:29:37;2.20;;;1.15;;
51266;SDS011;37338;47.426;19.204;2023-07-13T14:32:03;2.42;;;1.13;;
51266;SDS011;37338;47.426;19.204;2023-07-13T14:34:30;1.77;;;0.90;;
51266;SDS011;37338;47.426;19.204;2023-07-13T14:36:55;2.50;;;1.15;;
51266;SDS011;37338;47.426;19.204;2023-07-13T14:39:22;1.35;;;1.13;;
51266;SDS011;37338;47.426;19.204;2023-07-13T14:41:52;3.60;;;1.05;;
51266;SDS011;37338;47.426;19.204;2023-07-13T14:44:23;1.23;;;0.93;;
51266;SDS011;37338;47.426;19.204;2023-07-13T14:46:50;2.83;;;1.20;;
51266;SDS011;37338;47.426;19.204;2023-07-13T14:49:21;2.38;;;0.90;;
51266;SDS011;37338;47.426;19.204;2023-07-13T14:51:48;1.75;;;1.10;;
51266;SDS011;37338;47.426;19.204;2023-07-13T14:54:14;2.65;;;1.13;;
51266;SDS011;37338;47.426;19.204;2023-07-13T14:56:39;2.97;;;1.05;;
51266;SDS011;37338;47.426;19.204;2023-07-13T14:59:04;2.92;;;1.17;;
51266;SDS011;37338;47.426;19.204;2023-07-13T15:01:30;1.98;;;0.88;;
51266;SDS011;37338;47.426;19.204;2023-07-13T15:03:56;2.17;;;1.13;;
51266;SDS011;37338;47.426;19.204;2023-07-13T15:06:23;3.45;;;1.00;;
51266;SDS011;37338;47.426;19.204;2023-07-13T15:08:48;2.13;;;1.00;;
51266;SDS011;37338;47.426;19.204;2023-07-13T15:11:14;2.05;;;1.25;;
51266;SDS011;37338;47.426;19.204;2023-07-13T15:13:40;3.15;;;1.05;;
51266;SDS011;37338;47.426;19.204;2023-07-13T15:16:16;1.55;;;0.98;;
51266;SDS011;37338;47.426;19.204;2023-07-13T15:18:46;1.25;;;0.73;;
51266;SDS011;37338;47.426;19.204;2023-07-13T15:21:13;3.00;;;1.20;;
51266;SDS011;37338;47.426;19.204;2023-07-13T15:23:41;1.30;;;1.10;;
51266;SDS011;37338;47.426;19.204;2023-07-13T15:26:11;1.67;;;1.00;;
51266;SDS011;37338;47.426;19.204;2023-07-13T15:28:38;1.35;;;0.85;;